sensor_id;sensor_type;location;lat;lon;timestamp;temperature;humidity
56761;DHT22;42633;44.494;11.356;2023-01-15T00:01:22;8.60;99.90
56761;DHT22;42633;44.494;11.356;2023-01-15T00:04:26;8.60;99.90
56761;DHT22;42633;44.494;11.356;2023-01-15T00:07:30;8.60;99.90
56761;DHT22;42633;44.494;11.356;2023-01-15T00:10:35;8.60;99.90
56761;DHT22;42633;44.494;11.356;2023-01-15T00:13:40;8.60;99.90
56761;DHT22;42633;44.494;11.356;2023-01-15T00:16:44;8.60;99.90
56761;DHT22;42633;44.494;11.356;2023-01-15T00:19:48;8.60;99.90
56761;DHT22;42633;44.494;11.356;2023-01-15T00:22:52;8.50;99.90
56761;DHT22;42633;44.494;11.356;2023-01-15T00:25:56;8.50;99.90
56761;DHT22;42633;44.494;11.356;2023-01-15T00:29:20;8.50;99.90
56761;DHT22;42633;44.494;11.356;2023-01-15T00:32:25;8.50;99.90
56761;DHT22;42633;44.494;11.356;2023-01-15T00:35:32;8.40;99.90
56761;DHT22;42633;44.494;11.356;2023-01-15T00:38:36;8.40;99.90
56761;DHT22;42633;44.494;11.356;2023-01-15T00:41:40;8.40;99.90
56761;DHT22;42633;44.494;11.356;2023-01-15T00:44:45;8.40;99.90
56761;DHT22;42633;44.494;11.356;2023-01-15T00:47:50;8.50;99.90
56761;DHT22;42633;44.494;11.356;2023-01-15T00:50:53;8.50;99.90
56761;DHT22;42633;44.494;11.356;2023-01-15T00:53:57;8.40;99.90
56761;DHT22;42633;44.494;11.356;2023-01-15T00:57:01;8.40;99.90
56761;DHT22;42633;44.494;11.356;2023-01-15T01:00:06;8.40;99.90
56761;DHT22;42633;44.494;11.356;2023-01-15T01:03:10;8.40;99.90
56761;DHT22;42633;44.494;11.356;2023-01-15T01:06:16;8.30;99.90
56761;DHT22;42633;44.494;11.356;2023-01-15T01:09:20;8.30;99.90
56761;DHT22;42633;44.494;11.356;2023-01-15T01:12:24;8.30;99.90
56761;DHT22;42633;44.494;11.356;2023-01-15T01:15:29;8.30;99.90
56761;DHT22;42633;44.494;11.356;2023-01-15T01:18:33;8.20;99.90
56761;DHT22;42633;44.494;11.356;2023-01-15T01:21:38;8.20;99.90
56761;DHT22;42633;44.494;11.356;2023-01-15T01:24:42;8.20;99.90
56761;DHT22;42633;44.494;11.356;2023-01-15T01:27:47;8.20;99.90
56761;DHT22;42633;44.494;11.356;2023-01-15T01:30:51;8.20;99.90
56761;DHT22;42633;44.494;11.356;2023-01-15T01:33:57;8.10;99.90
56761;DHT22;42633;44.494;11.356;2023-01-15T01:37:02;8.10;99.90
56761;DHT22;42633;44.494;11.356;2023-01-15T01:40:06;8.10;99.90
56761;DHT22;42633;44.494;11.356;2023-01-15T01:43:19;8.10;99.90
56761;DHT22;42633;44.494;11.356;2023-01-15T01:46:25;8.00;99.90
56761;DHT22;42633;44.494;11.356;2023-01-15T01:49:30;8.00;99.90
56761;DHT22;42633;44.494;11.356;2023-01-15T01:53:02;8.00;99.90
56761;DHT22;42633;44.494;11.356;2023-01-15T01:56:09;8.00;99.90
56761;DHT22;42633;44.494;11.356;2023-01-15T01:59:16;7.90;99.90
56761;DHT22;42633;44.494;11.356;2023-01-15T02:02:21;7.90;99.90
56761;DHT22;42633;44.494;11.356;2023-01-15T02:05:38;7.90;99.90
56761;DHT22;42633;44.494;11.356;2023-01-15T02:08:43;7.80;99.90
56761;DHT22;42633;44.494;11.356;2023-01-15T02:11:49;7.90;99.90
56761;DHT22;42633;44.494;11.356;2023-01-15T02:15:10;7.80;99.90
56761;DHT22;42633;44.494;11.356;2023-01-15T02:18:30;7.80;99.90
56761;DHT22;42633;44.494;11.356;2023-01-15T02:21:55;7.80;99.90
56761;DHT22;42633;44.494;11.356;2023-01-15T02:31:36;7.80;99.90
56761;DHT22;42633;44.494;11.356;2023-01-15T02:34:47;7.80;99.90
56761;DHT22;42633;44.494;11.356;2023-01-15T02:37:58;7.80;99.90
56761;DHT22;42633;44.494;11.356;2023-01-15T02:41:07;7.80;99.90
56761;DHT22;42633;44.494;11.356;2023-01-15T02:44:21;7.80;99.90
56761;DHT22;42633;44.494;11.356;2023-01-15T02:47:32;7.80;99.90
56761;DHT22;42633;44.494;11.356;2023-01-15T02:50:44;7.70;99.90
56761;DHT22;42633;44.494;11.356;2023-01-15T02:53:52;7.70;99.90
56761;DHT22;42633;44.494;11.356;2023-01-15T02:56:59;7.80;99.90
56761;DHT22;42633;44.494;11.356;2023-01-15T03:00:10;7.80;99.90
56761;DHT22;42633;44.494;11.356;2023-01-15T03:03:20;7.80;99.90
56761;DHT22;42633;44.494;11.356;2023-01-15T03:07:20;7.80;99.90
56761;DHT22;42633;44.494;11.356;2023-01-15T03:10:07;7.80;99.90
56761;DHT22;42633;44.494;11.356;2023-01-15T03:13:16;7.80;99.90
56761;DHT22;42633;44.494;11.356;2023-01-15T03:16:38;7.80;99.90
56761;DHT22;42633;44.494;11.356;2023-01-15T03:19:59;7.90;99.90
56761;DHT22;42633;44.494;11.356;2023-01-15T03:23:10;7.90;99.90
56761;DHT22;42633;44.494;11.356;2023-01-15T03:26:15;7.90;99.90
56761;DHT22;42633;44.494;11.356;2023-01-15T03:29:23;7.90;99.90
56761;DHT22;42633;44.494;11.356;2023-01-15T03:32:30;7.90;99.90
56761;DHT22;42633;44.494;11.356;2023-01-15T03:35:56;7.90;99.90
56761;DHT22;42633;44.494;11.356;2023-01-15T03:39:22;8.00;99.90
56761;DHT22;42633;44.494;11.356;2023-01-15T03:43:15;8.00;99.90
56761;DHT22;42633;44.494;11.356;2023-01-15T03:56:43;7.80;99.90
56761;DHT22;42633;44.494;11.356;2023-01-15T03:59:54;7.80;99.90
56761;DHT22;42633;44.494;11.356;2023-01-15T04:03:01;7.80;99.90
56761;DHT22;42633;44.494;11.356;2023-01-15T04:06:10;7.70;99.90
56761;DHT22;42633;44.494;11.356;2023-01-15T04:09:15;7.70;99.90
56761;DHT22;42633;44.494;11.356;2023-01-15T04:12:21;7.70;99.90
56761;DHT22;42633;44.494;11.356;2023-01-15T04:15:25;7.70;99.90
56761;DHT22;42633;44.494;11.356;2023-01-15T04:18:31;7.70;99.90
56761;DHT22;42633;44.494;11.356;2023-01-15T04:21:35;7.70;99.90
56761;DHT22;42633;44.494;11.356;2023-01-15T04:24:39;7.70;99.90
56761;DHT22;42633;44.494;11.356;2023-01-15T04:27:43;7.70;99.90
56761;DHT22;42633;44.494;11.356;2023-01-15T04:30:47;7.80;99.90
56761;DHT22;42633;44.494;11.356;2023-01-15T04:33:51;7.80;99.90
56761;DHT22;42633;44.494;11.356;2023-01-15T04:36:56;7.80;99.90
56761;DHT22;42633;44.494;11.356;2023-01-15T04:40:00;7.80;99.90
56761;DHT22;42633;44.494;11.356;2023-01-15T04:43:04;7.80;99.90
56761;DHT22;42633;44.494;11.356;2023-01-15T04:46:26;7.80;99.90
56761;DHT22;42633;44.494;11.356;2023-01-15T04:49:30;7.80;99.90
56761;DHT22;42633;44.494;11.356;2023-01-15T04:52:35;7.90;99.90
56761;DHT22;42633;44.494;11.356;2023-01-15T04:55:39;8.00;99.90
56761;DHT22;42633;44.494;11.356;2023-01-15T04:58:43;8.00;99.90
56761;DHT22;42633;44.494;11.356;2023-01-15T05:01:48;8.10;99.90
56761;DHT22;42633;44.494;11.356;2023-01-15T05:04:52;8.20;99.90
56761;DHT22;42633;44.494;11.356;2023-01-15T05:07:56;8.20;99.90
56761;DHT22;42633;44.494;11.356;2023-01-15T05:11:05;8.20;99.90
56761;DHT22;42633;44.494;11.356;2023-01-15T05:14:09;8.20;99.90
56761;DHT22;42633;44.494;11.356;2023-01-15T05:17:13;8.30;99.90
56761;DHT22;42633;44.494;11.356;2023-01-15T05:20:17;8.30;99.90
56761;DHT22;42633;44.494;11.356;2023-01-15T05:23:22;8.20;99.90
56761;DHT22;42633;44.494;11.356;2023-01-15T05:26:27;8.20;99.90
56761;DHT22;42633;44.494;11.356;2023-01-15T05:29:32;8.10;99.90
56761;DHT22;42633;44.494;11.356;2023-01-15T05:32:35;8.00;99.90
56761;DHT22;42633;44.494;11.356;2023-01-15T05:35:39;8.00;99.90
56761;DHT22;42633;44.494;11.356;2023-01-15T05:38:44;8.00;99.90
56761;DHT22;42633;44.494;11.356;2023-01-15T05:41:48;8.00;99.90
56761;DHT22;42633;44.494;11.356;2023-01-15T05:44:52;7.90;99.90
56761;DHT22;42633;44.494;11.356;2023-01-15T05:47:56;7.80;99.90
56761;DHT22;42633;44.494;11.356;2023-01-15T05:51:01;7.80;99.90
56761;DHT22;42633;44.494;11.356;2023-01-15T05:54:07;7.80;99.90
56761;DHT22;42633;44.494;11.356;2023-01-15T05:57:12;7.70;99.90
56761;DHT22;42633;44.494;11.356;2023-01-15T06:00:16;7.60;99.90
56761;DHT22;42633;44.494;11.356;2023-01-15T06:03:22;7.60;99.90
56761;DHT22;42633;44.494;11.356;2023-01-15T06:06:26;7.60;99.90
56761;DHT22;42633;44.494;11.356;2023-01-15T06:09:30;7.60;99.90
56761;DHT22;42633;44.494;11.356;2023-01-15T06:12:35;7.70;99.90
56761;DHT22;42633;44.494;11.356;2023-01-15T06:15:40;7.80;99.90
56761;DHT22;42633;44.494;11.356;2023-01-15T06:18:44;7.90;99.90
56761;DHT22;42633;44.494;11.356;2023-01-15T06:21:48;7.90;99.90
56761;DHT22;42633;44.494;11.356;2023-01-15T06:24:52;8.00;99.90
56761;DHT22;42633;44.494;11.356;2023-01-15T06:27:57;8.00;99.90
56761;DHT22;42633;44.494;11.356;2023-01-15T06:31:08;8.10;99.90
56761;DHT22;42633;44.494;11.356;2023-01-15T06:34:13;8.20;99.90
56761;DHT22;42633;44.494;11.356;2023-01-15T06:37:18;8.20;99.90
56761;DHT22;42633;44.494;11.356;2023-01-15T06:40:22;8.20;99.90
56761;DHT22;42633;44.494;11.356;2023-01-15T06:43:26;8.20;99.90
56761;DHT22;42633;44.494;11.356;2023-01-15T06:46:49;8.20;99.90
56761;DHT22;42633;44.494;11.356;2023-01-15T06:50:12;8.30;99.90
56761;DHT22;42633;44.494;11.356;2023-01-15T06:53:17;8.20;99.90
56761;DHT22;42633;44.494;11.356;2023-01-15T06:56:21;8.20;99.90
56761;DHT22;42633;44.494;11.356;2023-01-15T06:59:25;8.20;99.90
56761;DHT22;42633;44.494;11.356;2023-01-15T07:02:29;8.20;99.90
56761;DHT22;42633;44.494;11.356;2023-01-15T07:05:33;8.20;99.90
56761;DHT22;42633;44.494;11.356;2023-01-15T07:08:37;8.20;99.90
56761;DHT22;42633;44.494;11.356;2023-01-15T07:11:41;8.20;99.90
56761;DHT22;42633;44.494;11.356;2023-01-15T07:14:54;8.30;99.90
56761;DHT22;42633;44.494;11.356;2023-01-15T07:17:58;8.30;99.90
56761;DHT22;42633;44.494;11.356;2023-01-15T07:21:03;8.30;99.90
56761;DHT22;42633;44.494;11.356;2023-01-15T07:24:08;8.40;99.90
56761;DHT22;42633;44.494;11.356;2023-01-15T07:27:13;8.30;99.90
56761;DHT22;42633;44.494;11.356;2023-01-15T07:30:17;8.40;99.90
56761;DHT22;42633;44.494;11.356;2023-01-15T07:33:21;8.50;99.90
56761;DHT22;42633;44.494;11.356;2023-01-15T07:36:25;8.50;99.90
56761;DHT22;42633;44.494;11.356;2023-01-15T07:39:30;8.50;99.90
56761;DHT22;42633;44.494;11.356;2023-01-15T07:42:34;8.50;99.90
56761;DHT22;42633;44.494;11.356;2023-01-15T07:45:58;8.40;99.90
56761;DHT22;42633;44.494;11.356;2023-01-15T07:49:20;8.40;99.90
56761;DHT22;42633;44.494;11.356;2023-01-15T07:52:43;8.40;99.90
56761;DHT22;42633;44.494;11.356;2023-01-15T07:55:47;8.40;99.90
56761;DHT22;42633;44.494;11.356;2023-01-15T07:58:51;8.40;99.90
56761;DHT22;42633;44.494;11.356;2023-01-15T08:01:56;8.40;99.90
56761;DHT22;42633;44.494;11.356;2023-01-15T08:05:01;8.50;99.90
56761;DHT22;42633;44.494;11.356;2023-01-15T08:08:05;8.50;99.90
56761;DHT22;42633;44.494;11.356;2023-01-15T08:11:16;8.50;99.90
56761;DHT22;42633;44.494;11.356;2023-01-15T08:14:39;8.60;99.90
56761;DHT22;42633;44.494;11.356;2023-01-15T08:18:01;8.60;99.90
56761;DHT22;42633;44.494;11.356;2023-01-15T08:21:06;8.70;99.90
56761;DHT22;42633;44.494;11.356;2023-01-15T08:24:16;8.80;99.90
56761;DHT22;42633;44.494;11.356;2023-01-15T08:27:20;8.90;99.90
56761;DHT22;42633;44.494;11.356;2023-01-15T08:30:24;8.90;99.90
56761;DHT22;42633;44.494;11.356;2023-01-15T08:33:28;8.90;99.90
56761;DHT22;42633;44.494;11.356;2023-01-15T08:36:32;8.90;99.90
56761;DHT22;42633;44.494;11.356;2023-01-15T08:39:36;8.90;99.90
56761;DHT22;42633;44.494;11.356;2023-01-15T08:42:41;8.80;99.90
56761;DHT22;42633;44.494;11.356;2023-01-15T08:45:45;8.80;99.90
56761;DHT22;42633;44.494;11.356;2023-01-15T08:48:49;8.80;99.90
56761;DHT22;42633;44.494;11.356;2023-01-15T08:51:53;8.80;99.90
56761;DHT22;42633;44.494;11.356;2023-01-15T08:54:57;8.80;99.90
56761;DHT22;42633;44.494;11.356;2023-01-15T08:58:04;8.70;99.90
56761;DHT22;42633;44.494;11.356;2023-01-15T09:01:10;8.80;99.90
56761;DHT22;42633;44.494;11.356;2023-01-15T09:04:19;8.80;99.90
56761;DHT22;42633;44.494;11.356;2023-01-15T09:11:07;9.00;99.90
56761;DHT22;42633;44.494;11.356;2023-01-15T09:14:14;9.10;99.90
56761;DHT22;42633;44.494;11.356;2023-01-15T09:17:19;9.20;99.90
56761;DHT22;42633;44.494;11.356;2023-01-15T09:20:23;9.20;99.90
56761;DHT22;42633;44.494;11.356;2023-01-15T09:23:27;9.20;99.90
56761;DHT22;42633;44.494;11.356;2023-01-15T09:26:36;9.20;99.90
56761;DHT22;42633;44.494;11.356;2023-01-15T09:29:40;9.30;99.90
56761;DHT22;42633;44.494;11.356;2023-01-15T09:32:45;9.40;99.90
56761;DHT22;42633;44.494;11.356;2023-01-15T09:35:50;9.50;99.90
56761;DHT22;42633;44.494;11.356;2023-01-15T09:39:19;9.50;99.90
56761;DHT22;42633;44.494;11.356;2023-01-15T09:42:48;9.50;99.90
56761;DHT22;42633;44.494;11.356;2023-01-15T09:46:12;9.50;99.90
56761;DHT22;42633;44.494;11.356;2023-01-15T09:56:35;9.60;99.90
56761;DHT22;42633;44.494;11.356;2023-01-15T09:59:42;9.60;99.90
56761;DHT22;42633;44.494;11.356;2023-01-15T10:06:31;9.60;99.90
56761;DHT22;42633;44.494;11.356;2023-01-15T10:09:38;9.60;99.90
56761;DHT22;42633;44.494;11.356;2023-01-15T10:12:44;9.60;99.90
56761;DHT22;42633;44.494;11.356;2023-01-15T10:15:51;9.70;99.90
56761;DHT22;42633;44.494;11.356;2023-01-15T10:18:56;9.60;99.90
56761;DHT22;42633;44.494;11.356;2023-01-15T10:22:17;9.60;99.90
56761;DHT22;42633;44.494;11.356;2023-01-15T10:25:28;9.60;99.90
56761;DHT22;42633;44.494;11.356;2023-01-15T10:35:59;9.80;99.90
56761;DHT22;42633;44.494;11.356;2023-01-15T10:39:14;9.60;99.90
56761;DHT22;42633;44.494;11.356;2023-01-15T10:45:38;9.70;99.90
56761;DHT22;42633;44.494;11.356;2023-01-15T10:48:52;9.70;99.90
56761;DHT22;42633;44.494;11.356;2023-01-15T10:52:07;9.80;99.90
56761;DHT22;42633;44.494;11.356;2023-01-15T10:55:30;9.80;99.90
56761;DHT22;42633;44.494;11.356;2023-01-15T10:58:40;9.90;99.90
56761;DHT22;42633;44.494;11.356;2023-01-15T11:01:51;9.90;99.90
56761;DHT22;42633;44.494;11.356;2023-01-15T11:04:56;9.90;99.90
56761;DHT22;42633;44.494;11.356;2023-01-15T11:08:05;9.90;99.90
56761;DHT22;42633;44.494;11.356;2023-01-15T11:11:24;10.00;99.90
56761;DHT22;42633;44.494;11.356;2023-01-15T11:15:17;10.10;99.90
56761;DHT22;42633;44.494;11.356;2023-01-15T11:18:44;10.10;99.90
56761;DHT22;42633;44.494;11.356;2023-01-15T11:22:16;10.10;99.90
56761;DHT22;42633;44.494;11.356;2023-01-15T11:25:29;10.10;99.90
56761;DHT22;42633;44.494;11.356;2023-01-15T11:28:39;10.10;99.90
56761;DHT22;42633;44.494;11.356;2023-01-15T11:31:46;10.10;99.90
56761;DHT22;42633;44.494;11.356;2023-01-15T11:35:13;10.10;99.90
56761;DHT22;42633;44.494;11.356;2023-01-15T11:38:17;10.10;99.90
56761;DHT22;42633;44.494;11.356;2023-01-15T11:44:54;10.00;99.90
56761;DHT22;42633;44.494;11.356;2023-01-15T11:48:21;10.00;99.90
56761;DHT22;42633;44.494;11.356;2023-01-15T11:51:46;10.00;99.90
56761;DHT22;42633;44.494;11.356;2023-01-15T11:54:53;10.00;99.90
56761;DHT22;42633;44.494;11.356;2023-01-15T11:57:58;10.00;99.90
56761;DHT22;42633;44.494;11.356;2023-01-15T12:01:03;9.90;99.90
56761;DHT22;42633;44.494;11.356;2023-01-15T12:07:28;9.90;99.90
56761;DHT22;42633;44.494;11.356;2023-01-15T12:21:27;9.80;99.90
56761;DHT22;42633;44.494;11.356;2023-01-15T12:28:20;9.80;99.90
56761;DHT22;42633;44.494;11.356;2023-01-15T12:32:02;9.90;99.90
56761;DHT22;42633;44.494;11.356;2023-01-15T12:35:52;9.90;99.90
56761;DHT22;42633;44.494;11.356;2023-01-15T12:39:01;10.00;99.90
56761;DHT22;42633;44.494;11.356;2023-01-15T12:42:10;10.10;99.90
56761;DHT22;42633;44.494;11.356;2023-01-15T12:45:37;10.30;99.90
56761;DHT22;42633;44.494;11.356;2023-01-15T12:49:18;10.40;99.90
56761;DHT22;42633;44.494;11.356;2023-01-15T12:52:34;10.40;99.90
56761;DHT22;42633;44.494;11.356;2023-01-15T12:55:44;10.40;99.90
56761;DHT22;42633;44.494;11.356;2023-01-15T13:05:57;10.40;99.90
56761;DHT22;42633;44.494;11.356;2023-01-15T13:09:17;10.40;99.90
56761;DHT22;42633;44.494;11.356;2023-01-15T13:12:22;10.40;99.90
56761;DHT22;42633;44.494;11.356;2023-01-15T13:15:30;10.50;99.90
56761;DHT22;42633;44.494;11.356;2023-01-15T13:18:39;10.50;99.90
56761;DHT22;42633;44.494;11.356;2023-01-15T13:21:46;10.60;99.90
56761;DHT22;42633;44.494;11.356;2023-01-15T13:25:06;10.40;99.90
56761;DHT22;42633;44.494;11.356;2023-01-15T13:32:01;10.30;99.90
56761;DHT22;42633;44.494;11.356;2023-01-15T13:35:28;10.30;99.90
56761;DHT22;42633;44.494;11.356;2023-01-15T13:38:39;10.30;99.90
56761;DHT22;42633;44.494;11.356;2023-01-15T13:41:47;10.20;99.90
56761;DHT22;42633;44.494;11.356;2023-01-15T13:48:33;10.10;99.90
56761;DHT22;42633;44.494;11.356;2023-01-15T13:51:39;10.20;99.90
56761;DHT22;42633;44.494;11.356;2023-01-15T13:54:46;10.30;99.90
56761;DHT22;42633;44.494;11.356;2023-01-15T13:57:50;10.40;99.90
56761;DHT22;42633;44.494;11.356;2023-01-15T14:04:33;10.40;99.90
56761;DHT22;42633;44.494;11.356;2023-01-15T14:07:39;10.50;99.90
56761;DHT22;42633;44.494;11.356;2023-01-15T14:10:43;10.60;99.90
56761;DHT22;42633;44.494;11.356;2023-01-15T14:31:23;10.50;99.90
56761;DHT22;42633;44.494;11.356;2023-01-15T14:34:33;10.40;99.90
56761;DHT22;42633;44.494;11.356;2023-01-15T14:41:01;10.30;99.90
56761;DHT22;42633;44.494;11.356;2023-01-15T14:44:06;10.40;99.90
56761;DHT22;42633;44.494;11.356;2023-01-15T14:47:26;10.50;99.90
56761;DHT22;42633;44.494;11.356;2023-01-15T14:50:39;10.50;99.90
56761;DHT22;42633;44.494;11.356;2023-01-15T14:53:50;10.60;99.90
56761;DHT22;42633;44.494;11.356;2023-01-15T14:56:56;10.60;99.90
56761;DHT22;42633;44.494;11.356;2023-01-15T15:00:03;10.40;99.90
56761;DHT22;42633;44.494;11.356;2023-01-15T15:03:16;10.40;99.90
56761;DHT22;42633;44.494;11.356;2023-01-15T15:06:21;10.50;99.90
56761;DHT22;42633;44.494;11.356;2023-01-15T15:12:59;10.60;99.90
56761;DHT22;42633;44.494;11.356;2023-01-15T15:16:17;10.60;99.90
56761;DHT22;42633;44.494;11.356;2023-01-15T15:19:34;10.50;99.90
56761;DHT22;42633;44.494;11.356;2023-01-15T15:22:43;10.40;99.90
56761;DHT22;42633;44.494;11.356;2023-01-15T15:26:00;10.50;99.90
56761;DHT22;42633;44.494;11.356;2023-01-15T15:29:12;10.40;99.90
56761;DHT22;42633;44.494;11.356;2023-01-15T15:32:19;10.40;99.90
56761;DHT22;42633;44.494;11.356;2023-01-15T15:35:25;10.30;99.90
56761;DHT22;42633;44.494;11.356;2023-01-15T15:38:30;10.00;99.90
56761;DHT22;42633;44.494;11.356;2023-01-15T15:41:35;10.00;99.90
56761;DHT22;42633;44.494;11.356;2023-01-15T15:44:59;9.80;99.90
56761;DHT22;42633;44.494;11.356;2023-01-15T15:48:29;10.00;99.90
56761;DHT22;42633;44.494;11.356;2023-01-15T15:51:52;10.00;99.90
56761;DHT22;42633;44.494;11.356;2023-01-15T15:55:00;10.10;99.90
56761;DHT22;42633;44.494;11.356;2023-01-15T15:58:10;10.10;99.90
56761;DHT22;42633;44.494;11.356;2023-01-15T16:01:16;10.10;99.90
56761;DHT22;42633;44.494;11.356;2023-01-15T16:04:21;10.10;99.90
56761;DHT22;42633;44.494;11.356;2023-01-15T16:07:29;10.00;99.90
56761;DHT22;42633;44.494;11.356;2023-01-15T16:10:40;10.10;99.90
56761;DHT22;42633;44.494;11.356;2023-01-15T16:13:47;10.10;99.90
56761;DHT22;42633;44.494;11.356;2023-01-15T16:16:52;10.20;99.90
56761;DHT22;42633;44.494;11.356;2023-01-15T16:19:58;10.20;99.90
56761;DHT22;42633;44.494;11.356;2023-01-15T16:23:04;10.20;99.90
56761;DHT22;42633;44.494;11.356;2023-01-15T16:26:11;10.20;99.90
56761;DHT22;42633;44.494;11.356;2023-01-15T16:29:18;10.20;99.90
56761;DHT22;42633;44.494;11.356;2023-01-15T16:32:27;10.20;99.90
56761;DHT22;42633;44.494;11.356;2023-01-15T16:35:35;10.10;99.90
56761;DHT22;42633;44.494;11.356;2023-01-15T16:38:41;10.00;99.90
56761;DHT22;42633;44.494;11.356;2023-01-15T16:41:55;10.00;99.90
56761;DHT22;42633;44.494;11.356;2023-01-15T16:45:26;10.00;99.90
56761;DHT22;42633;44.494;11.356;2023-01-15T16:48:33;10.00;99.90
56761;DHT22;42633;44.494;11.356;2023-01-15T16:51:46;9.90;99.90
56761;DHT22;42633;44.494;11.356;2023-01-15T16:54:51;9.90;99.90
56761;DHT22;42633;44.494;11.356;2023-01-15T17:01:37;9.70;99.90
56761;DHT22;42633;44.494;11.356;2023-01-15T17:04:46;9.50;99.90
56761;DHT22;42633;44.494;11.356;2023-01-15T17:07:52;9.50;99.90
56761;DHT22;42633;44.494;11.356;2023-01-15T17:11:00;9.50;99.90
56761;DHT22;42633;44.494;11.356;2023-01-15T17:14:08;9.50;99.90
56761;DHT22;42633;44.494;11.356;2023-01-15T17:20:24;9.60;99.90
56761;DHT22;42633;44.494;11.356;2023-01-15T17:23:39;9.60;99.90
56761;DHT22;42633;44.494;11.356;2023-01-15T17:26:46;9.60;99.90
56761;DHT22;42633;44.494;11.356;2023-01-15T17:29:51;9.70;99.90
56761;DHT22;42633;44.494;11.356;2023-01-15T17:32:58;9.80;99.90
56761;DHT22;42633;44.494;11.356;2023-01-15T17:36:04;9.80;99.90
56761;DHT22;42633;44.494;11.356;2023-01-15T17:39:09;9.80;99.90
56761;DHT22;42633;44.494;11.356;2023-01-15T17:42:18;9.90;99.90
56761;DHT22;42633;44.494;11.356;2023-01-15T17:45:28;9.90;99.90
56761;DHT22;42633;44.494;11.356;2023-01-15T17:48:33;9.80;99.90
56761;DHT22;42633;44.494;11.356;2023-01-15T17:51:39;9.80;99.90
56761;DHT22;42633;44.494;11.356;2023-01-15T17:54:44;10.00;99.90
56761;DHT22;42633;44.494;11.356;2023-01-15T17:58:12;10.00;99.90
56761;DHT22;42633;44.494;11.356;2023-01-15T18:01:39;10.10;99.90
56761;DHT22;42633;44.494;11.356;2023-01-15T18:05:07;10.10;99.90
56761;DHT22;42633;44.494;11.356;2023-01-15T18:08:34;10.20;99.90
56761;DHT22;42633;44.494;11.356;2023-01-15T18:11:39;10.10;99.90
56761;DHT22;42633;44.494;11.356;2023-01-15T18:14:45;10.20;99.90
56761;DHT22;42633;44.494;11.356;2023-01-15T18:17:50;10.30;99.90
56761;DHT22;42633;44.494;11.356;2023-01-15T18:20:59;10.30;99.90
56761;DHT22;42633;44.494;11.356;2023-01-15T18:24:05;10.20;99.90
56761;DHT22;42633;44.494;11.356;2023-01-15T18:27:09;10.20;99.90
56761;DHT22;42633;44.494;11.356;2023-01-15T18:30:15;10.20;99.90
56761;DHT22;42633;44.494;11.356;2023-01-15T18:33:20;10.20;99.90
56761;DHT22;42633;44.494;11.356;2023-01-15T18:36:25;10.10;99.90
56761;DHT22;42633;44.494;11.356;2023-01-15T18:39:30;10.10;99.90
56761;DHT22;42633;44.494;11.356;2023-01-15T18:42:37;10.10;99.90
56761;DHT22;42633;44.494;11.356;2023-01-15T18:45:59;10.10;99.90
56761;DHT22;42633;44.494;11.356;2023-01-15T18:49:40;10.00;99.90
56761;DHT22;42633;44.494;11.356;2023-01-15T18:52:45;9.90;99.90
56761;DHT22;42633;44.494;11.356;2023-01-15T18:56:02;9.80;99.90
56761;DHT22;42633;44.494;11.356;2023-01-15T18:59:11;9.80;99.90
56761;DHT22;42633;44.494;11.356;2023-01-15T19:02:17;9.90;99.90
56761;DHT22;42633;44.494;11.356;2023-01-15T19:05:22;9.90;99.90
56761;DHT22;42633;44.494;11.356;2023-01-15T19:08:27;9.90;99.90
56761;DHT22;42633;44.494;11.356;2023-01-15T19:11:31;9.90;99.90
56761;DHT22;42633;44.494;11.356;2023-01-15T19:14:36;10.00;99.90
56761;DHT22;42633;44.494;11.356;2023-01-15T19:17:59;9.90;99.90
56761;DHT22;42633;44.494;11.356;2023-01-15T19:21:21;9.80;99.90
56761;DHT22;42633;44.494;11.356;2023-01-15T19:24:27;9.80;99.90
56761;DHT22;42633;44.494;11.356;2023-01-15T19:27:33;9.90;99.90
56761;DHT22;42633;44.494;11.356;2023-01-15T19:30:39;9.90;99.90
56761;DHT22;42633;44.494;11.356;2023-01-15T19:33:43;9.90;99.90
56761;DHT22;42633;44.494;11.356;2023-01-15T19:36:47;10.00;99.90
56761;DHT22;42633;44.494;11.356;2023-01-15T19:39:51;10.00;99.90
56761;DHT22;42633;44.494;11.356;2023-01-15T19:42:57;10.00;99.90
56761;DHT22;42633;44.494;11.356;2023-01-15T19:46:19;10.00;99.90
56761;DHT22;42633;44.494;11.356;2023-01-15T19:49:41;9.90;99.90
56761;DHT22;42633;44.494;11.356;2023-01-15T19:53:05;10.00;99.90
56761;DHT22;42633;44.494;11.356;2023-01-15T19:56:09;9.90;99.90
56761;DHT22;42633;44.494;11.356;2023-01-15T19:59:13;9.80;99.90
56761;DHT22;42633;44.494;11.356;2023-01-15T20:02:17;9.60;99.90
56761;DHT22;42633;44.494;11.356;2023-01-15T20:05:22;9.50;99.90
56761;DHT22;42633;44.494;11.356;2023-01-15T20:08:27;9.40;99.90
56761;DHT22;42633;44.494;11.356;2023-01-15T20:11:34;9.30;99.90
56761;DHT22;42633;44.494;11.356;2023-01-15T20:14:59;9.40;99.90
56761;DHT22;42633;44.494;11.356;2023-01-15T20:18:03;9.40;99.90
56761;DHT22;42633;44.494;11.356;2023-01-15T20:21:08;9.30;99.90
56761;DHT22;42633;44.494;11.356;2023-01-15T20:24:15;9.30;99.90
56761;DHT22;42633;44.494;11.356;2023-01-15T20:27:20;9.40;99.90
56761;DHT22;42633;44.494;11.356;2023-01-15T20:30:26;9.30;99.90
56761;DHT22;42633;44.494;11.356;2023-01-15T20:33:30;9.40;99.90
56761;DHT22;42633;44.494;11.356;2023-01-15T20:36:34;9.30;99.90
56761;DHT22;42633;44.494;11.356;2023-01-15T20:39:38;9.20;99.90
56761;DHT22;42633;44.494;11.356;2023-01-15T20:42:42;9.10;99.90
56761;DHT22;42633;44.494;11.356;2023-01-15T20:46:10;9.00;99.90
56761;DHT22;42633;44.494;11.356;2023-01-15T20:49:14;9.00;99.90
56761;DHT22;42633;44.494;11.356;2023-01-15T20:52:28;9.00;99.90
56761;DHT22;42633;44.494;11.356;2023-01-15T20:55:32;9.00;99.90
56761;DHT22;42633;44.494;11.356;2023-01-15T20:58:40;9.10;99.90
56761;DHT22;42633;44.494;11.356;2023-01-15T21:01:44;9.00;99.90
56761;DHT22;42633;44.494;11.356;2023-01-15T21:04:48;9.00;99.90
56761;DHT22;42633;44.494;11.356;2023-01-15T21:07:52;9.10;99.90
56761;DHT22;42633;44.494;11.356;2023-01-15T21:10:57;9.00;99.90
56761;DHT22;42633;44.494;11.356;2023-01-15T21:14:00;9.00;99.90
56761;DHT22;42633;44.494;11.356;2023-01-15T21:17:04;9.00;99.90
56761;DHT22;42633;44.494;11.356;2023-01-15T21:20:12;8.90;99.90
56761;DHT22;42633;44.494;11.356;2023-01-15T21:23:16;8.90;99.90
56761;DHT22;42633;44.494;11.356;2023-01-15T21:26:20;8.80;99.90
56761;DHT22;42633;44.494;11.356;2023-01-15T21:29:27;8.80;99.90
56761;DHT22;42633;44.494;11.356;2023-01-15T21:32:31;8.80;99.90
56761;DHT22;42633;44.494;11.356;2023-01-15T21:35:38;8.80;99.90
56761;DHT22;42633;44.494;11.356;2023-01-15T21:38:42;8.80;99.90
56761;DHT22;42633;44.494;11.356;2023-01-15T21:41:51;8.80;99.90
56761;DHT22;42633;44.494;11.356;2023-01-15T21:45:14;8.90;99.90